sensor_id;sensor_type;location;lat;lon;timestamp;P1;durP1;ratioP1;P2;durP2;ratioP2
8650;SDS011;4363;52.346;14.516;2023-01-16T00:00:55;474.43;;;242.17;;
8650;SDS011;4363;52.346;14.516;2023-01-16T00:03:22;478.43;;;240.87;;
8650;SDS011;4363;52.346;14.516;2023-01-16T00:05:48;497.07;;;263.03;;
8650;SDS011;4363;52.346;14.516;2023-01-16T00:08:15;534.53;;;279.23;;
8650;SDS011;4363;52.346;14.516;2023-01-16T00:10:43;500.43;;;261.03;;
8650;SDS011;4363;52.346;14.516;2023-01-16T00:13:11;543.03;;;291.00;;
8650;SDS011;4363;52.346;14.516;2023-01-16T00:15:39;495.47;;;259.37;;
8650;SDS011;4363;52.346;14.516;2023-01-16T00:18:09;567.27;;;305.00;;
8650;SDS011;4363;52.346;14.516;2023-01-16T00:20:36;498.93;;;262.40;;
8650;SDS011;4363;52.346;14.516;2023-01-16T00:23:02;537.27;;;287.10;;
8650;SDS011;4363;52.346;14.516;2023-01-16T00:25:29;478.77;;;248.13;;
8650;SDS011;4363;52.346;14.516;2023-01-16T00:27:55;533.13;;;286.23;;
8650;SDS011;4363;52.346;14.516;2023-01-16T00:30:22;552.80;;;305.20;;
8650;SDS011;4363;52.346;14.516;2023-01-16T00:32:49;539.37;;;281.27;;
8650;SDS011;4363;52.346;14.516;2023-01-16T00:35:15;539.50;;;287.60;;
8650;SDS011;4363;52.346;14.516;2023-01-16T00:37:42;497.40;;;263.13;;
8650;SDS011;4363;52.346;14.516;2023-01-16T00:40:08;458.17;;;237.47;;
8650;SDS011;4363;52.346;14.516;2023-01-16T00:42:35;483.53;;;254.57;;
8650;SDS011;4363;52.346;14.516;2023-01-16T00:45:01;516.70;;;268.33;;
8650;SDS011;4363;52.346;14.516;2023-01-16T00:47:27;521.13;;;276.13;;
8650;SDS011;4363;52.346;14.516;2023-01-16T00:49:53;497.40;;;264.17;;
8650;SDS011;4363;52.346;14.516;2023-01-16T00:52:20;515.93;;;274.67;;
8650;SDS011;4363;52.346;14.516;2023-01-16T00:54:47;522.93;;;268.37;;
8650;SDS011;4363;52.346;14.516;2023-01-16T00:57:14;516.20;;;272.60;;
8650;SDS011;4363;52.346;14.516;2023-01-16T00:59:40;507.27;;;264.70;;
8650;SDS011;4363;52.346;14.516;2023-01-16T01:02:06;535.77;;;285.17;;
8650;SDS011;4363;52.346;14.516;2023-01-16T01:04:32;532.30;;;279.67;;
8650;SDS011;4363;52.346;14.516;2023-01-16T01:06:58;562.70;;;300.30;;
8650;SDS011;4363;52.346;14.516;2023-01-16T01:09:25;478.90;;;244.80;;
8650;SDS011;4363;52.346;14.516;2023-01-16T01:11:51;518.57;;;273.80;;
8650;SDS011;4363;52.346;14.516;2023-01-16T01:14:18;535.93;;;290.33;;
8650;SDS011;4363;52.346;14.516;2023-01-16T01:16:44;490.97;;;257.83;;
8650;SDS011;4363;52.346;14.516;2023-01-16T01:19:14;444.73;;;229.37;;
8650;SDS011;4363;52.346;14.516;2023-01-16T01:21:40;445.37;;;228.07;;
8650;SDS011;4363;52.346;14.516;2023-01-16T01:24:07;449.40;;;239.17;;
8650;SDS011;4363;52.346;14.516;2023-01-16T01:26:34;405.47;;;208.50;;
8650;SDS011;4363;52.346;14.516;2023-01-16T01:29:01;472.50;;;244.77;;
8650;SDS011;4363;52.346;14.516;2023-01-16T01:31:27;537.33;;;289.33;;
8650;SDS011;4363;52.346;14.516;2023-01-16T01:33:54;436.27;;;222.17;;
8650;SDS011;4363;52.346;14.516;2023-01-16T01:36:20;488.20;;;261.93;;
8650;SDS011;4363;52.346;14.516;2023-01-16T01:38:47;460.23;;;236.47;;
8650;SDS011;4363;52.346;14.516;2023-01-16T01:41:15;567.80;;;305.57;;
8650;SDS011;4363;52.346;14.516;2023-01-16T01:43:49;489.90;;;255.70;;
8650;SDS011;4363;52.346;14.516;2023-01-16T01:46:26;553.00;;;297.70;;
8650;SDS011;4363;52.346;14.516;2023-01-16T01:48:56;541.80;;;283.97;;
8650;SDS011;4363;52.346;14.516;2023-01-16T01:51:25;572.87;;;316.90;;
8650;SDS011;4363;52.346;14.516;2023-01-16T01:53:55;483.57;;;248.10;;
8650;SDS011;4363;52.346;14.516;2023-01-16T01:56:29;463.33;;;236.57;;
8650;SDS011;4363;52.346;14.516;2023-01-16T01:58:58;515.77;;;270.23;;
8650;SDS011;4363;52.346;14.516;2023-01-16T02:01:26;533.60;;;286.93;;
8650;SDS011;4363;52.346;14.516;2023-01-16T02:03:57;482.37;;;251.10;;
8650;SDS011;4363;52.346;14.516;2023-01-16T02:06:34;549.13;;;291.83;;
8650;SDS011;4363;52.346;14.516;2023-01-16T02:09:01;503.73;;;260.83;;
8650;SDS011;4363;52.346;14.516;2023-01-16T02:11:32;506.50;;;272.63;;
8650;SDS011;4363;52.346;14.516;2023-01-16T02:14:05;535.73;;;274.70;;
8650;SDS011;4363;52.346;14.516;2023-01-16T02:16:33;470.33;;;236.03;;
8650;SDS011;4363;52.346;14.516;2023-01-16T02:27:13;384.13;;;204.43;;
8650;SDS011;4363;52.346;14.516;2023-01-16T02:32:31;395.27;;;212.23;;
8650;SDS011;4363;52.346;14.516;2023-01-16T02:35:04;401.73;;;210.10;;
8650;SDS011;4363;52.346;14.516;2023-01-16T02:37:40;437.23;;;239.97;;
8650;SDS011;4363;52.346;14.516;2023-01-16T02:40:43;472.10;;;261.57;;
8650;SDS011;4363;52.346;14.516;2023-01-16T02:48:06;376.93;;;193.33;;
8650;SDS011;4363;52.346;14.516;2023-01-16T02:50:38;388.70;;;201.33;;
8650;SDS011;4363;52.346;14.516;2023-01-16T02:54:07;395.47;;;208.43;;
8650;SDS011;4363;52.346;14.516;2023-01-16T02:56:06;473.37;;;264.47;;
8650;SDS011;4363;52.346;14.516;2023-01-16T02:58:46;394.37;;;209.23;;
8650;SDS011;4363;52.346;14.516;2023-01-16T03:01:16;393.83;;;208.73;;
8650;SDS011;4363;52.346;14.516;2023-01-16T03:11:24;432.70;;;230.83;;
8650;SDS011;4363;52.346;14.516;2023-01-16T03:13:58;455.47;;;253.43;;
8650;SDS011;4363;52.346;14.516;2023-01-16T03:16:30;415.80;;;224.60;;
8650;SDS011;4363;52.346;14.516;2023-01-16T03:35:13;462.50;;;235.17;;
8650;SDS011;4363;52.346;14.516;2023-01-16T03:37:56;482.40;;;250.70;;
8650;SDS011;4363;52.346;14.516;2023-01-16T03:40:24;446.63;;;224.23;;
8650;SDS011;4363;52.346;14.516;2023-01-16T03:43:08;521.53;;;264.97;;
8650;SDS011;4363;52.346;14.516;2023-01-16T03:56:53;487.20;;;249.23;;
8650;SDS011;4363;52.346;14.516;2023-01-16T03:59:24;497.07;;;254.63;;
8650;SDS011;4363;52.346;14.516;2023-01-16T04:02:11;451.47;;;229.17;;
8650;SDS011;4363;52.346;14.516;2023-01-16T04:04:59;461.33;;;226.47;;
8650;SDS011;4363;52.346;14.516;2023-01-16T04:07:38;466.97;;;230.20;;
8650;SDS011;4363;52.346;14.516;2023-01-16T04:10:18;515.77;;;257.07;;
8650;SDS011;4363;52.346;14.516;2023-01-16T04:12:49;503.00;;;247.20;;
8650;SDS011;4363;52.346;14.516;2023-01-16T04:15:17;560.93;;;274.70;;
8650;SDS011;4363;52.346;14.516;2023-01-16T04:17:46;522.77;;;263.30;;
8650;SDS011;4363;52.346;14.516;2023-01-16T04:20:17;510.77;;;261.77;;
8650;SDS011;4363;52.346;14.516;2023-01-16T04:22:49;470.90;;;232.40;;
8650;SDS011;4363;52.346;14.516;2023-01-16T04:25:17;491.33;;;246.57;;
8650;SDS011;4363;52.346;14.516;2023-01-16T04:27:46;449.00;;;218.77;;
8650;SDS011;4363;52.346;14.516;2023-01-16T04:30:27;588.60;;;294.57;;
8650;SDS011;4363;52.346;14.516;2023-01-16T04:32:56;484.00;;;242.10;;
8650;SDS011;4363;52.346;14.516;2023-01-16T04:35:24;469.03;;;236.47;;
8650;SDS011;4363;52.346;14.516;2023-01-16T04:37:53;467.47;;;227.30;;
8650;SDS011;4363;52.346;14.516;2023-01-16T04:40:26;528.43;;;267.50;;
8650;SDS011;4363;52.346;14.516;2023-01-16T04:42:54;503.03;;;255.23;;
8650;SDS011;4363;52.346;14.516;2023-01-16T04:45:22;458.67;;;226.17;;
8650;SDS011;4363;52.346;14.516;2023-01-16T04:47:52;575.17;;;300.13;;
8650;SDS011;4363;52.346;14.516;2023-01-16T04:50:22;511.00;;;245.67;;
8650;SDS011;4363;52.346;14.516;2023-01-16T04:52:49;488.67;;;245.37;;
8650;SDS011;4363;52.346;14.516;2023-01-16T04:55:24;532.57;;;270.47;;
8650;SDS011;4363;52.346;14.516;2023-01-16T04:57:51;497.53;;;247.83;;
8650;SDS011;4363;52.346;14.516;2023-01-16T05:00:24;460.93;;;230.30;;
8650;SDS011;4363;52.346;14.516;2023-01-16T05:05:18;459.27;;;232.13;;
8650;SDS011;4363;52.346;14.516;2023-01-16T05:07:44;504.83;;;252.67;;
8650;SDS011;4363;52.346;14.516;2023-01-16T05:10:34;472.60;;;236.77;;
8650;SDS011;4363;52.346;14.516;2023-01-16T05:13:00;455.33;;;225.90;;
8650;SDS011;4363;52.346;14.516;2023-01-16T05:15:29;495.07;;;255.03;;
8650;SDS011;4363;52.346;14.516;2023-01-16T05:17:55;535.30;;;272.53;;
8650;SDS011;4363;52.346;14.516;2023-01-16T05:20:22;484.00;;;246.90;;
8650;SDS011;4363;52.346;14.516;2023-01-16T05:22:48;431.30;;;207.17;;
8650;SDS011;4363;52.346;14.516;2023-01-16T05:25:17;450.63;;;225.77;;
8650;SDS011;4363;52.346;14.516;2023-01-16T05:30:36;519.13;;;260.20;;
8650;SDS011;4363;52.346;14.516;2023-01-16T05:33:09;479.70;;;240.43;;
8650;SDS011;4363;52.346;14.516;2023-01-16T05:35:45;400.13;;;197.43;;
8650;SDS011;4363;52.346;14.516;2023-01-16T05:38:14;428.83;;;210.73;;
8650;SDS011;4363;52.346;14.516;2023-01-16T05:40:41;420.00;;;208.17;;
8650;SDS011;4363;52.346;14.516;2023-01-16T05:43:18;456.33;;;232.13;;
8650;SDS011;4363;52.346;14.516;2023-01-16T05:45:44;381.70;;;186.53;;
8650;SDS011;4363;52.346;14.516;2023-01-16T05:48:13;447.50;;;226.53;;
8650;SDS011;4363;52.346;14.516;2023-01-16T05:50:46;375.77;;;187.43;;
8650;SDS011;4363;52.346;14.516;2023-01-16T05:53:33;413.73;;;209.17;;
8650;SDS011;4363;52.346;14.516;2023-01-16T05:56:05;400.87;;;193.27;;
8650;SDS011;4363;52.346;14.516;2023-01-16T05:58:35;391.90;;;190.80;;
8650;SDS011;4363;52.346;14.516;2023-01-16T06:01:11;440.37;;;224.80;;
8650;SDS011;4363;52.346;14.516;2023-01-16T06:03:40;455.07;;;234.70;;
8650;SDS011;4363;52.346;14.516;2023-01-16T06:06:08;424.57;;;217.00;;
8650;SDS011;4363;52.346;14.516;2023-01-16T06:08:37;448.03;;;226.27;;
8650;SDS011;4363;52.346;14.516;2023-01-16T06:11:09;402.63;;;199.13;;
8650;SDS011;4363;52.346;14.516;2023-01-16T06:13:36;470.23;;;242.27;;
8650;SDS011;4363;52.346;14.516;2023-01-16T06:16:07;453.60;;;232.13;;
8650;SDS011;4363;52.346;14.516;2023-01-16T06:18:33;391.83;;;196.73;;
8650;SDS011;4363;52.346;14.516;2023-01-16T06:21:05;396.40;;;198.63;;
8650;SDS011;4363;52.346;14.516;2023-01-16T06:23:32;450.20;;;236.23;;
8650;SDS011;4363;52.346;14.516;2023-01-16T06:26:04;424.80;;;217.93;;
8650;SDS011;4363;52.346;14.516;2023-01-16T06:28:40;462.07;;;237.90;;
8650;SDS011;4363;52.346;14.516;2023-01-16T06:31:12;453.00;;;236.37;;
8650;SDS011;4363;52.346;14.516;2023-01-16T06:33:41;418.87;;;218.07;;
8650;SDS011;4363;52.346;14.516;2023-01-16T06:36:10;372.37;;;187.03;;
8650;SDS011;4363;52.346;14.516;2023-01-16T06:38:45;441.27;;;227.20;;
8650;SDS011;4363;52.346;14.516;2023-01-16T06:41:11;380.77;;;196.43;;
8650;SDS011;4363;52.346;14.516;2023-01-16T06:46:35;519.13;;;256.03;;
8650;SDS011;4363;52.346;14.516;2023-01-16T06:49:05;486.07;;;246.40;;
8650;SDS011;4363;52.346;14.516;2023-01-16T06:51:43;558.43;;;293.00;;
8650;SDS011;4363;52.346;14.516;2023-01-16T06:54:09;489.60;;;256.77;;
8650;SDS011;4363;52.346;14.516;2023-01-16T06:56:38;442.60;;;227.17;;
8650;SDS011;4363;52.346;14.516;2023-01-16T06:59:07;451.33;;;234.83;;
8650;SDS011;4363;52.346;14.516;2023-01-16T07:01:42;454.30;;;234.37;;
8650;SDS011;4363;52.346;14.516;2023-01-16T07:04:21;446.17;;;230.70;;
8650;SDS011;4363;52.346;14.516;2023-01-16T07:06:48;414.30;;;214.50;;
8650;SDS011;4363;52.346;14.516;2023-01-16T07:09:21;461.10;;;239.70;;
8650;SDS011;4363;52.346;14.516;2023-01-16T07:12:12;453.83;;;236.17;;
8650;SDS011;4363;52.346;14.516;2023-01-16T07:14:43;536.47;;;290.20;;
8650;SDS011;4363;52.346;14.516;2023-01-16T07:17:31;481.10;;;242.60;;
8650;SDS011;4363;52.346;14.516;2023-01-16T07:20:16;379.57;;;190.97;;
8650;SDS011;4363;52.346;14.516;2023-01-16T07:26:44;424.20;;;215.23;;
8650;SDS011;4363;52.346;14.516;2023-01-16T07:29:21;437.13;;;226.10;;
8650;SDS011;4363;52.346;14.516;2023-01-16T07:34:42;470.40;;;242.43;;
8650;SDS011;4363;52.346;14.516;2023-01-16T07:37:11;425.70;;;214.50;;
8650;SDS011;4363;52.346;14.516;2023-01-16T07:39:41;415.30;;;221.63;;
8650;SDS011;4363;52.346;14.516;2023-01-16T07:42:07;391.67;;;197.57;;
8650;SDS011;4363;52.346;14.516;2023-01-16T07:44:42;399.23;;;201.07;;
8650;SDS011;4363;52.346;14.516;2023-01-16T07:47:09;422.57;;;213.70;;
8650;SDS011;4363;52.346;14.516;2023-01-16T07:49:39;441.00;;;228.93;;
8650;SDS011;4363;52.346;14.516;2023-01-16T07:52:13;456.80;;;237.10;;
8650;SDS011;4363;52.346;14.516;2023-01-16T07:54:43;478.07;;;252.17;;
8650;SDS011;4363;52.346;14.516;2023-01-16T07:57:17;448.37;;;234.27;;
8650;SDS011;4363;52.346;14.516;2023-01-16T07:59:49;464.50;;;240.70;;
8650;SDS011;4363;52.346;14.516;2023-01-16T08:02:18;400.60;;;216.13;;
8650;SDS011;4363;52.346;14.516;2023-01-16T08:05:00;449.27;;;229.77;;
8650;SDS011;4363;52.346;14.516;2023-01-16T08:07:28;478.80;;;261.03;;
8650;SDS011;4363;52.346;14.516;2023-01-16T08:10:06;385.87;;;195.23;;
8650;SDS011;4363;52.346;14.516;2023-01-16T08:12:36;425.63;;;224.23;;
8650;SDS011;4363;52.346;14.516;2023-01-16T08:15:05;424.23;;;228.63;;
8650;SDS011;4363;52.346;14.516;2023-01-16T08:17:46;394.43;;;209.87;;
8650;SDS011;4363;52.346;14.516;2023-01-16T08:20:20;380.30;;;200.40;;
8650;SDS011;4363;52.346;14.516;2023-01-16T08:23:12;455.90;;;239.07;;
8650;SDS011;4363;52.346;14.516;2023-01-16T08:25:49;445.47;;;230.03;;
8650;SDS011;4363;52.346;14.516;2023-01-16T08:28:27;418.83;;;225.50;;
8650;SDS011;4363;52.346;14.516;2023-01-16T08:31:10;424.13;;;229.20;;
8650;SDS011;4363;52.346;14.516;2023-01-16T08:33:43;382.20;;;202.13;;
8650;SDS011;4363;52.346;14.516;2023-01-16T08:36:12;413.50;;;218.10;;
8650;SDS011;4363;52.346;14.516;2023-01-16T08:38:52;467.97;;;256.50;;
8650;SDS011;4363;52.346;14.516;2023-01-16T08:41:18;444.97;;;235.53;;
8650;SDS011;4363;52.346;14.516;2023-01-16T08:44:03;450.03;;;241.50;;
8650;SDS011;4363;52.346;14.516;2023-01-16T08:46:55;446.60;;;239.10;;
8650;SDS011;4363;52.346;14.516;2023-01-16T08:49:41;463.43;;;242.77;;
8650;SDS011;4363;52.346;14.516;2023-01-16T08:52:26;450.20;;;234.43;;
8650;SDS011;4363;52.346;14.516;2023-01-16T08:54:56;454.97;;;246.13;;
8650;SDS011;4363;52.346;14.516;2023-01-16T08:57:31;448.47;;;241.00;;
8650;SDS011;4363;52.346;14.516;2023-01-16T08:59:59;481.93;;;260.47;;
8650;SDS011;4363;52.346;14.516;2023-01-16T09:02:31;477.03;;;256.20;;
8650;SDS011;4363;52.346;14.516;2023-01-16T09:05:01;491.33;;;263.73;;
8650;SDS011;4363;52.346;14.516;2023-01-16T09:07:37;429.17;;;226.17;;
8650;SDS011;4363;52.346;14.516;2023-01-16T09:10:03;501.13;;;271.47;;
8650;SDS011;4363;52.346;14.516;2023-01-16T09:12:30;465.20;;;244.63;;
8650;SDS011;4363;52.346;14.516;2023-01-16T09:15:18;471.67;;;253.80;;
8650;SDS011;4363;52.346;14.516;2023-01-16T09:17:56;449.30;;;230.70;;
8650;SDS011;4363;52.346;14.516;2023-01-16T09:20:30;465.47;;;243.33;;
8650;SDS011;4363;52.346;14.516;2023-01-16T09:23:00;420.53;;;226.10;;
8650;SDS011;4363;52.346;14.516;2023-01-16T09:25:28;418.33;;;197.70;;
8650;SDS011;4363;52.346;14.516;2023-01-16T09:27:57;400.07;;;191.10;;
8650;SDS011;4363;52.346;14.516;2023-01-16T09:30:28;467.17;;;238.40;;
8650;SDS011;4363;52.346;14.516;2023-01-16T09:32:54;469.40;;;232.77;;
8650;SDS011;4363;52.346;14.516;2023-01-16T09:35:23;452.30;;;211.27;;
8650;SDS011;4363;52.346;14.516;2023-01-16T09:37:49;427.90;;;208.20;;
8650;SDS011;4363;52.346;14.516;2023-01-16T09:40:19;472.20;;;235.67;;
8650;SDS011;4363;52.346;14.516;2023-01-16T09:45:43;438.57;;;208.30;;
8650;SDS011;4363;52.346;14.516;2023-01-16T09:48:30;432.17;;;212.90;;
8650;SDS011;4363;52.346;14.516;2023-01-16T09:51:04;445.27;;;208.27;;
8650;SDS011;4363;52.346;14.516;2023-01-16T09:56:36;437.00;;;211.47;;
8650;SDS011;4363;52.346;14.516;2023-01-16T10:05:05;451.83;;;219.90;;
8650;SDS011;4363;52.346;14.516;2023-01-16T10:13:14;467.90;;;218.60;;
8650;SDS011;4363;52.346;14.516;2023-01-16T10:15:59;495.70;;;236.47;;
8650;SDS011;4363;52.346;14.516;2023-01-16T10:27:06;527.87;;;255.03;;
8650;SDS011;4363;52.346;14.516;2023-01-16T10:29:50;458.53;;;230.40;;
8650;SDS011;4363;52.346;14.516;2023-01-16T10:37:13;501.83;;;240.70;;
8650;SDS011;4363;52.346;14.516;2023-01-16T10:39:39;481.13;;;231.17;;
8650;SDS011;4363;52.346;14.516;2023-01-16T10:42:18;516.47;;;253.33;;
8650;SDS011;4363;52.346;14.516;2023-01-16T10:47:49;528.17;;;272.57;;
8650;SDS011;4363;52.346;14.516;2023-01-16T10:50:35;524.43;;;262.37;;
8650;SDS011;4363;52.346;14.516;2023-01-16T10:53:07;485.57;;;234.93;;
8650;SDS011;4363;52.346;14.516;2023-01-16T10:55:34;516.07;;;255.00;;
8650;SDS011;4363;52.346;14.516;2023-01-16T10:58:05;497.63;;;246.40;;
8650;SDS011;4363;52.346;14.516;2023-01-16T11:00:32;489.00;;;239.87;;
8650;SDS011;4363;52.346;14.516;2023-01-16T11:05:44;520.57;;;259.23;;
8650;SDS011;4363;52.346;14.516;2023-01-16T11:08:22;469.83;;;232.47;;
8650;SDS011;4363;52.346;14.516;2023-01-16T11:10:53;425.37;;;210.50;;
8650;SDS011;4363;52.346;14.516;2023-01-16T11:13:23;498.33;;;248.17;;
8650;SDS011;4363;52.346;14.516;2023-01-16T11:16:17;463.57;;;227.03;;
8650;SDS011;4363;52.346;14.516;2023-01-16T11:19:19;458.93;;;226.57;;
8650;SDS011;4363;52.346;14.516;2023-01-16T11:21:57;478.43;;;240.93;;
8650;SDS011;4363;52.346;14.516;2023-01-16T11:24:33;511.23;;;255.17;;
8650;SDS011;4363;52.346;14.516;2023-01-16T11:26:59;494.13;;;242.03;;
8650;SDS011;4363;52.346;14.516;2023-01-16T11:29:26;501.07;;;261.23;;
8650;SDS011;4363;52.346;14.516;2023-01-16T11:31:56;507.87;;;255.50;;
8650;SDS011;4363;52.346;14.516;2023-01-16T11:34:26;552.87;;;291.57;;
8650;SDS011;4363;52.346;14.516;2023-01-16T11:36:54;493.27;;;240.53;;
8650;SDS011;4363;52.346;14.516;2023-01-16T11:39:23;536.87;;;271.87;;
8650;SDS011;4363;52.346;14.516;2023-01-16T11:41:51;535.37;;;262.43;;
8650;SDS011;4363;52.346;14.516;2023-01-16T11:44:26;503.07;;;243.23;;
8650;SDS011;4363;52.346;14.516;2023-01-16T11:47:12;534.53;;;263.30;;
8650;SDS011;4363;52.346;14.516;2023-01-16T11:49:41;440.50;;;214.33;;
8650;SDS011;4363;52.346;14.516;2023-01-16T11:52:13;472.00;;;240.03;;
8650;SDS011;4363;52.346;14.516;2023-01-16T11:55:01;494.37;;;261.20;;
8650;SDS011;4363;52.346;14.516;2023-01-16T12:10:36;474.30;;;241.17;;
8650;SDS011;4363;52.346;14.516;2023-01-16T12:13:07;432.30;;;209.67;;
8650;SDS011;4363;52.346;14.516;2023-01-16T12:16:15;484.50;;;245.20;;
8650;SDS011;4363;52.346;14.516;2023-01-16T12:21:43;441.20;;;229.60;;
8650;SDS011;4363;52.346;14.516;2023-01-16T12:27:06;498.10;;;255.27;;
8650;SDS011;4363;52.346;14.516;2023-01-16T12:32:56;471.13;;;241.00;;
8650;SDS011;4363;52.346;14.516;2023-01-16T12:35:38;454.93;;;226.80;;
8650;SDS011;4363;52.346;14.516;2023-01-16T12:38:09;526.40;;;280.97;;
8650;SDS011;4363;52.346;14.516;2023-01-16T12:40:46;495.43;;;246.57;;
8650;SDS011;4363;52.346;14.516;2023-01-16T12:48:26;516.23;;;257.90;;
8650;SDS011;4363;52.346;14.516;2023-01-16T12:58:56;479.90;;;243.47;;
8650;SDS011;4363;52.346;14.516;2023-01-16T13:01:27;462.87;;;223.87;;
8650;SDS011;4363;52.346;14.516;2023-01-16T13:04:10;487.77;;;241.33;;
8650;SDS011;4363;52.346;14.516;2023-01-16T13:09:11;518.60;;;264.60;;
8650;SDS011;4363;52.346;14.516;2023-01-16T13:11:51;533.10;;;277.97;;
8650;SDS011;4363;52.346;14.516;2023-01-16T13:14:42;543.23;;;284.87;;
8650;SDS011;4363;52.346;14.516;2023-01-16T13:17:10;505.93;;;262.30;;
8650;SDS011;4363;52.346;14.516;2023-01-16T13:19:38;506.77;;;250.97;;
8650;SDS011;4363;52.346;14.516;2023-01-16T13:24:32;537.47;;;277.60;;
8650;SDS011;4363;52.346;14.516;2023-01-16T13:27:04;531.40;;;271.77;;
8650;SDS011;4363;52.346;14.516;2023-01-16T13:29:36;546.13;;;289.83;;
8650;SDS011;4363;52.346;14.516;2023-01-16T13:32:08;553.17;;;283.43;;
8650;SDS011;4363;52.346;14.516;2023-01-16T13:34:37;549.40;;;274.43;;
8650;SDS011;4363;52.346;14.516;2023-01-16T13:42:40;569.47;;;301.30;;
8650;SDS011;4363;52.346;14.516;2023-01-16T13:45:27;567.77;;;299.00;;
8650;SDS011;4363;52.346;14.516;2023-01-16T13:48:12;585.50;;;302.53;;
8650;SDS011;4363;52.346;14.516;2023-01-16T13:50:42;546.53;;;278.40;;
8650;SDS011;4363;52.346;14.516;2023-01-16T13:53:12;554.23;;;268.93;;
8650;SDS011;4363;52.346;14.516;2023-01-16T13:55:39;527.23;;;257.53;;
8650;SDS011;4363;52.346;14.516;2023-01-16T13:58:23;570.30;;;287.73;;
8650;SDS011;4363;52.346;14.516;2023-01-16T14:01:03;551.87;;;271.93;;
8650;SDS011;4363;52.346;14.516;2023-01-16T14:03:40;615.63;;;319.57;;
8650;SDS011;4363;52.346;14.516;2023-01-16T14:06:26;553.77;;;283.80;;
8650;SDS011;4363;52.346;14.516;2023-01-16T14:09:13;485.93;;;233.97;;
8650;SDS011;4363;52.346;14.516;2023-01-16T14:12:18;520.67;;;258.07;;
8650;SDS011;4363;52.346;14.516;2023-01-16T14:17:19;517.00;;;251.43;;
8650;SDS011;4363;52.346;14.516;2023-01-16T14:20:01;526.87;;;265.80;;
8650;SDS011;4363;52.346;14.516;2023-01-16T14:22:39;516.27;;;258.23;;
8650;SDS011;4363;52.346;14.516;2023-01-16T14:25:06;520.60;;;259.63;;
8650;SDS011;4363;52.346;14.516;2023-01-16T14:27:40;531.17;;;268.17;;
8650;SDS011;4363;52.346;14.516;2023-01-16T14:30:16;535.80;;;271.40;;
8650;SDS011;4363;52.346;14.516;2023-01-16T14:32:47;504.63;;;251.67;;
8650;SDS011;4363;52.346;14.516;2023-01-16T14:35:15;553.43;;;289.33;;
8650;SDS011;4363;52.346;14.516;2023-01-16T14:37:43;501.00;;;251.37;;
8650;SDS011;4363;52.346;14.516;2023-01-16T14:40:20;458.63;;;226.93;;
8650;SDS011;4363;52.346;14.516;2023-01-16T14:43:05;491.33;;;245.13;;
8650;SDS011;4363;52.346;14.516;2023-01-16T14:48:58;464.60;;;233.70;;
8650;SDS011;4363;52.346;14.516;2023-01-16T14:51:54;521.93;;;267.40;;
8650;SDS011;4363;52.346;14.516;2023-01-16T14:54:39;444.90;;;224.07;;
8650;SDS011;4363;52.346;14.516;2023-01-16T14:57:24;458.23;;;224.50;;
8650;SDS011;4363;52.346;14.516;2023-01-16T15:02:56;424.00;;;208.93;;
8650;SDS011;4363;52.346;14.516;2023-01-16T15:08:35;462.77;;;233.77;;
8650;SDS011;4363;52.346;14.516;2023-01-16T15:11:10;451.93;;;232.13;;
8650;SDS011;4363;52.346;14.516;2023-01-16T15:14:14;484.70;;;249.10;;
8650;SDS011;4363;52.346;14.516;2023-01-16T15:17:03;444.20;;;221.60;;
8650;SDS011;4363;52.346;14.516;2023-01-16T15:23:00;467.70;;;242.00;;
8650;SDS011;4363;52.346;14.516;2023-01-16T15:28:17;490.50;;;234.77;;
8650;SDS011;4363;52.346;14.516;2023-01-16T15:30:46;500.47;;;236.83;;
8650;SDS011;4363;52.346;14.516;2023-01-16T15:33:26;489.33;;;230.70;;
8650;SDS011;4363;52.346;14.516;2023-01-16T15:36:14;500.93;;;226.33;;
8650;SDS011;4363;52.346;14.516;2023-01-16T15:38:43;506.10;;;227.23;;
8650;SDS011;4363;52.346;14.516;2023-01-16T15:41:10;454.70;;;212.00;;
8650;SDS011;4363;52.346;14.516;2023-01-16T15:43:36;499.90;;;237.20;;
8650;SDS011;4363;52.346;14.516;2023-01-16T15:47:12;525.17;;;225.77;;
8650;SDS011;4363;52.346;14.516;2023-01-16T15:49:14;435.93;;;197.87;;
8650;SDS011;4363;52.346;14.516;2023-01-16T15:51:50;385.47;;;173.07;;
8650;SDS011;4363;52.346;14.516;2023-01-16T15:54:16;444.03;;;202.80;;
8650;SDS011;4363;52.346;14.516;2023-01-16T15:56:43;470.53;;;211.67;;
8650;SDS011;4363;52.346;14.516;2023-01-16T15:59:26;483.30;;;217.47;;
8650;SDS011;4363;52.346;14.516;2023-01-16T16:01:53;457.67;;;209.00;;
8650;SDS011;4363;52.346;14.516;2023-01-16T16:04:22;475.40;;;212.80;;
8650;SDS011;4363;52.346;14.516;2023-01-16T16:06:48;448.03;;;204.00;;
8650;SDS011;4363;52.346;14.516;2023-01-16T16:09:19;483.30;;;227.90;;
8650;SDS011;4363;52.346;14.516;2023-01-16T16:11:46;432.37;;;193.23;;
8650;SDS011;4363;52.346;14.516;2023-01-16T16:14:25;426.70;;;195.20;;
8650;SDS011;4363;52.346;14.516;2023-01-16T16:22:46;453.07;;;209.17;;
8650;SDS011;4363;52.346;14.516;2023-01-16T16:25:25;405.23;;;180.47;;
8650;SDS011;4363;52.346;14.516;2023-01-16T16:27:54;440.43;;;192.80;;
8650;SDS011;4363;52.346;14.516;2023-01-16T16:30:22;512.03;;;237.17;;
8650;SDS011;4363;52.346;14.516;2023-01-16T16:32:49;461.80;;;212.30;;
8650;SDS011;4363;52.346;14.516;2023-01-16T16:35:28;469.83;;;212.90;;
8650;SDS011;4363;52.346;14.516;2023-01-16T16:37:55;455.40;;;208.10;;
8650;SDS011;4363;52.346;14.516;2023-01-16T16:40:21;433.20;;;190.33;;
8650;SDS011;4363;52.346;14.516;2023-01-16T16:42:49;500.83;;;238.40;;
8650;SDS011;4363;52.346;14.516;2023-01-16T16:47:44;441.50;;;196.53;;
8650;SDS011;4363;52.346;14.516;2023-01-16T16:50:29;417.83;;;189.47;;
8650;SDS011;4363;52.346;14.516;2023-01-16T16:53:05;358.57;;;161.07;;
8650;SDS011;4363;52.346;14.516;2023-01-16T16:55:35;469.37;;;219.90;;
8650;SDS011;4363;52.346;14.516;2023-01-16T16:58:24;412.70;;;185.30;;
8650;SDS011;4363;52.346;14.516;2023-01-16T17:00:51;406.53;;;176.57;;
8650;SDS011;4363;52.346;14.516;2023-01-16T17:03:22;420.97;;;188.57;;
8650;SDS011;4363;52.346;14.516;2023-01-16T17:05:56;430.77;;;192.43;;
8650;SDS011;4363;52.346;14.516;2023-01-16T17:08:23;431.80;;;190.73;;
8650;SDS011;4363;52.346;14.516;2023-01-16T17:10:56;428.00;;;199.33;;
8650;SDS011;4363;52.346;14.516;2023-01-16T17:13:22;435.23;;;197.83;;
8650;SDS011;4363;52.346;14.516;2023-01-16T17:15:50;439.33;;;194.43;;
8650;SDS011;4363;52.346;14.516;2023-01-16T17:18:16;403.60;;;182.10;;
8650;SDS011;4363;52.346;14.516;2023-01-16T17:20:45;442.00;;;198.27;;
8650;SDS011;4363;52.346;14.516;2023-01-16T17:23:12;443.83;;;195.10;;
8650;SDS011;4363;52.346;14.516;2023-01-16T17:25:39;431.23;;;203.50;;
8650;SDS011;4363;52.346;14.516;2023-01-16T17:28:05;454.80;;;210.10;;
8650;SDS011;4363;52.346;14.516;2023-01-16T17:30:34;475.73;;;215.27;;
8650;SDS011;4363;52.346;14.516;2023-01-16T17:33:04;525.67;;;228.27;;
8650;SDS011;4363;52.346;14.516;2023-01-16T17:35:35;390.13;;;181.80;;